Time;durP1;ratioP1;P1;durP2;ratioP2;P2;SDS_P1;SDS_P2;PMS_P1;PMS_P2;Temp;Humidity;BMP_temperature;BMP_pressure;BME280_temperature;BME280_humidity;BME280_pressure;Samples;Min_cycle;Max_cycle;Signal;HPM_P1;HPM_P2
2020/12/17 00:00:56;;;;;;;9.88;5.10;;;6.40;99.90;;;;;;5028735;28;20049;-67
2020/12/17 00:03:23;;;;;;;11.38;5.43;;;6.40;99.90;;;;;;5028930;28;20053;-68
2020/12/17 00:05:49;;;;;;;16.17;5.20;;;6.40;99.90;;;;;;5025919;28;20045;-67
2020/12/17 00:08:18;;;;;;;12.18;5.57;;;6.40;99.90;;;;;;5028145;28;20085;-66
2020/12/17 00:10:46;;;;;;;10.70;5.45;;;6.40;99.90;;;;;;5028332;28;20456;-68
2020/12/17 00:13:13;;;;;;;13.10;4.70;;;6.40;99.90;;;;;;5028931;28;20826;-67
2020/12/17 00:15:39;;;;;;;11.35;5.35;;;6.40;99.90;;;;;;5033587;28;20843;-67
2020/12/17 00:18:06;;;;;;;13.18;4.90;;;6.40;99.90;;;;;;5024641;28;20102;-66
2020/12/17 00:20:32;;;;;;;5.95;4.82;;;6.40;99.90;;;;;;5027035;28;20136;-68
2020/12/17 00:23:03;;;;;;;11.15;5.60;;;6.40;99.90;;;;;;5028574;28;20526;-67
2020/12/17 00:25:29;;;;;;;10.50;4.03;;;6.40;99.90;;;;;;5026808;28;20136;-68
2020/12/17 00:27:56;;;;;;;12.85;4.80;;;6.30;99.90;;;;;;5023802;28;20080;-68
2020/12/17 00:30:22;;;;;;;16.45;5.70;;;6.30;99.90;;;;;;5026298;28;20052;-67
2020/12/17 00:32:48;;;;;;;6.47;4.03;;;6.30;99.90;;;;;;5025739;28;20049;-71
2020/12/17 00:35:15;;;;;;;15.02;5.40;;;6.30;99.90;;;;;;5031437;28;20160;-67
2020/12/17 00:37:42;;;;;;;15.93;5.80;;;6.20;99.90;;;;;;5027141;28;20087;-68
2020/12/17 00:40:11;;;;;;;10.45;5.15;;;6.20;99.90;;;;;;5030333;28;20068;-69
2020/12/17 00:42:45;;;;;;;11.68;5.13;;;6.20;99.90;;;;;;5025275;28;20057;-67
2020/12/17 00:45:14;;;;;;;12.35;5.25;;;6.20;99.90;;;;;;5025055;28;21336;-68
2020/12/17 00:47:40;;;;;;;16.98;5.13;;;6.20;99.90;;;;;;5031661;28;20142;-69
2020/12/17 00:50:09;;;;;;;14.68;5.28;;;6.10;99.90;;;;;;5030600;28;20048;-67
2020/12/17 00:52:39;;;;;;;12.57;4.88;;;6.10;99.90;;;;;;5027636;28;20064;-66
2020/12/17 00:55:06;;;;;;;13.45;6.57;;;6.10;99.90;;;;;;5035364;28;20558;-67
2020/12/17 00:57:33;;;;;;;13.90;6.00;;;6.00;99.90;;;;;;5024676;28;20065;-67
2020/12/17 00:59:59;;;;;;;21.00;5.88;;;6.00;99.90;;;;;;5032623;28;20063;-68
2020/12/17 01:02:26;;;;;;;13.05;5.28;;;6.00;99.90;;;;;;5030976;28;20076;-67
2020/12/17 01:04:52;;;;;;;14.65;5.80;;;6.00;99.90;;;;;;5023220;28;20053;-68
2020/12/17 01:07:20;;;;;;;9.52;5.03;;;6.10;99.90;;;;;;5027768;28;20049;-68
2020/12/17 01:09:47;;;;;;;13.80;5.93;;;6.10;99.90;;;;;;5023506;28;20069;-68
2020/12/17 01:12:15;;;;;;;24.00;5.70;;;6.10;99.90;;;;;;5023555;28;20048;-68
2020/12/17 01:14:41;;;;;;;17.85;6.78;;;6.20;99.90;;;;;;5023815;28;20045;-66
2020/12/17 01:17:08;;;;;;;19.77;6.28;;;6.20;99.90;;;;;;5023688;28;20117;-67
2020/12/17 01:19:35;;;;;;;12.63;6.30;;;6.20;99.90;;;;;;5027566;28;20085;-68
2020/12/17 01:22:02;;;;;;;17.10;5.95;;;6.30;99.90;;;;;;5032704;28;20047;-66
2020/12/17 01:24:29;;;;;;;12.63;5.38;;;6.30;99.90;;;;;;5028641;28;20076;-67
2020/12/17 01:26:56;;;;;;;19.17;5.95;;;6.30;99.90;;;;;;5037145;28;20041;-69
2020/12/17 01:29:24;;;;;;;20.08;7.93;;;6.30;99.90;;;;;;5025730;28;20061;-66
2020/12/17 01:31:55;;;;;;;10.75;6.18;;;6.30;99.90;;;;;;5027532;28;20048;-68
2020/12/17 01:34:22;;;;;;;12.35;6.65;;;6.30;99.90;;;;;;5035060;28;20515;-66
2020/12/17 01:36:56;;;;;;;13.88;5.25;;;6.30;99.90;;;;;;5027601;28;20069;-67
2020/12/17 01:39:23;;;;;;;18.92;5.32;;;6.30;99.90;;;;;;5028025;28;20042;-69
2020/12/17 01:41:50;;;;;;;13.43;5.15;;;6.30;99.90;;;;;;5030374;28;20045;-68
2020/12/17 01:44:17;;;;;;;13.82;6.25;;;6.40;99.90;;;;;;5025973;28;20056;-68
2020/12/17 01:46:43;;;;;;;14.30;5.72;;;6.30;99.90;;;;;;5032263;28;20133;-67
2020/12/17 01:49:12;;;;;;;16.02;6.07;;;6.30;99.90;;;;;;5028447;28;20041;-70
2020/12/17 01:51:38;;;;;;;8.75;4.60;;;6.30;99.90;;;;;;5034318;28;20052;-68
2020/12/17 01:54:05;;;;;;;15.43;4.55;;;6.30;99.90;;;;;;5034020;28;20595;-68
2020/12/17 01:56:34;;;;;;;12.10;5.45;;;6.30;99.90;;;;;;5024631;28;20131;-67
2020/12/17 01:59:07;;;;;;;17.42;5.40;;;6.30;99.90;;;;;;5033507;28;20110;-68
2020/12/17 02:01:34;;;;;;;18.80;5.30;;;6.30;99.90;;;;;;5031326;28;20044;-68
2020/12/17 02:04:02;;;;;;;10.57;5.15;;;6.30;99.90;;;;;;5032250;28;20100;-67
2020/12/17 02:06:29;;;;;;;11.75;6.05;;;6.30;99.90;;;;;;5031006;28;20505;-69
2020/12/17 02:08:55;;;;;;;12.40;5.57;;;6.40;99.90;;;;;;5027174;28;20049;-68
2020/12/17 02:11:22;;;;;;;9.18;5.63;;;6.40;99.90;;;;;;5027278;28;20041;-67
2020/12/17 02:13:48;;;;;;;15.00;5.93;;;6.30;99.90;;;;;;5032465;28;20068;-67
2020/12/17 02:16:16;;;;;;;10.57;5.43;;;6.40;99.90;;;;;;5027432;28;20716;-69
2020/12/17 02:18:43;;;;;;;14.77;5.68;;;6.30;99.90;;;;;;5034375;28;20050;-67
2020/12/17 02:21:09;;;;;;;24.58;6.32;;;6.30;99.90;;;;;;5026359;28;20143;-69
2020/12/17 02:23:37;;;;;;;10.73;5.40;;;6.40;99.90;;;;;;5029959;28;20073;-66
2020/12/17 02:26:05;;;;;;;16.13;5.47;;;6.40;99.90;;;;;;5024387;28;20444;-68
2020/12/17 02:28:32;;;;;;;13.32;5.03;;;6.40;99.90;;;;;;5026997;28;20053;-66
2020/12/17 02:30:58;;;;;;;20.58;4.78;;;6.40;99.90;;;;;;5027183;28;20111;-67
2020/12/17 02:33:25;;;;;;;12.00;6.13;;;6.30;99.90;;;;;;5029798;28;20051;-67
2020/12/17 02:35:51;;;;;;;14.48;6.65;;;6.30;99.90;;;;;;5026951;28;20080;-70
2020/12/17 02:38:18;;;;;;;7.88;5.35;;;6.30;99.90;;;;;;5032689;28;20077;-68
2020/12/17 02:40:45;;;;;;;10.90;4.38;;;6.30;99.90;;;;;;5024900;28;20459;-67
2020/12/17 02:43:12;;;;;;;16.50;4.65;;;6.30;99.90;;;;;;5032126;28;20051;-67
2020/12/17 02:45:43;;;;;;;10.23;3.70;;;6.30;99.90;;;;;;5035588;28;20059;-68
2020/12/17 02:48:10;;;;;;;8.77;3.95;;;6.40;99.90;;;;;;5024975;28;20053;-68
2020/12/17 02:50:37;;;;;;;6.78;4.32;;;6.30;99.90;;;;;;5032234;28;20136;-66
2020/12/17 02:53:03;;;;;;;18.58;6.78;;;6.40;99.90;;;;;;5026608;28;20416;-66
2020/12/17 02:55:29;;;;;;;9.77;5.45;;;6.30;99.90;;;;;;5026676;28;20775;-71
2020/12/17 02:57:56;;;;;;;7.47;4.82;;;6.30;99.90;;;;;;5026827;28;20061;-67
2020/12/17 03:00:22;;;;;;;9.55;4.97;;;6.30;99.90;;;;;;5024827;28;20123;-69
2020/12/17 03:02:49;;;;;;;9.95;4.18;;;6.30;99.90;;;;;;5027163;28;20140;-67
2020/12/17 03:05:16;;;;;;;15.07;4.40;;;6.30;99.90;;;;;;5030623;28;20045;-69
2020/12/17 03:07:42;;;;;;;11.52;5.70;;;6.30;99.90;;;;;;5024283;28;20080;-71
2020/12/17 03:10:27;;;;;;;9.25;4.13;;;6.30;99.90;;;;;;5025708;28;20536;-67
2020/12/17 03:12:54;;;;;;;10.88;5.35;;;6.30;99.90;;;;;;5026630;28;20045;-68
2020/12/17 03:15:20;;;;;;;12.00;6.32;;;6.30;99.90;;;;;;5026380;28;20053;-66
2020/12/17 03:18:05;;;;;;;6.85;4.10;;;6.30;99.90;;;;;;5032206;28;20198;-67
2020/12/17 03:20:32;;;;;;;10.45;4.97;;;6.30;99.90;;;;;;5027697;28;20065;-67
2020/12/17 03:22:58;;;;;;;12.63;4.93;;;6.30;99.90;;;;;;5029871;28;20780;-66
2020/12/17 03:25:25;;;;;;;12.55;4.53;;;6.30;99.90;;;;;;5027276;28;20073;-71
2020/12/17 03:27:51;;;;;;;8.30;3.65;;;6.30;99.90;;;;;;5019316;28;20061;-67
2020/12/17 03:30:18;;;;;;;6.30;3.55;;;6.30;99.90;;;;;;5026400;28;20038;-69
2020/12/17 03:32:45;;;;;;;9.07;3.33;;;6.30;99.90;;;;;;5022948;28;20060;-67
2020/12/17 03:35:11;;;;;;;6.80;3.60;;;6.30;99.90;;;;;;5029565;28;20129;-71
2020/12/17 03:37:37;;;;;;;7.22;3.95;;;6.30;99.90;;;;;;5025191;28;20042;-68
2020/12/17 03:40:04;;;;;;;8.15;3.88;;;6.30;99.90;;;;;;5022064;28;20454;-69
2020/12/17 03:42:31;;;;;;;10.50;4.40;;;6.30;99.90;;;;;;5027038;28;20053;-68
2020/12/17 03:44:57;;;;;;;11.50;3.88;;;6.30;99.90;;;;;;5030860;28;20052;-67
2020/12/17 03:47:23;;;;;;;6.55;4.03;;;6.30;99.90;;;;;;5026371;28;20108;-67
2020/12/17 03:49:50;;;;;;;5.85;3.80;;;6.30;99.90;;;;;;5031858;28;20118;-71
2020/12/17 03:52:16;;;;;;;8.50;3.40;;;6.20;99.90;;;;;;5022129;28;20477;-67
2020/12/17 03:54:43;;;;;;;8.85;4.07;;;6.20;99.90;;;;;;5028855;28;20069;-67
2020/12/17 03:57:09;;;;;;;7.38;4.15;;;6.30;99.90;;;;;;5026193;28;20068;-67
2020/12/17 03:59:36;;;;;;;6.43;3.33;;;6.20;99.90;;;;;;5028162;28;20069;-67
2020/12/17 04:02:02;;;;;;;5.75;3.40;;;6.20;99.90;;;;;;5033344;28;20041;-67
2020/12/17 04:04:29;;;;;;;8.65;4.43;;;6.20;99.90;;;;;;5005534;28;20717;-67
2020/12/17 04:06:55;;;;;;;3.90;3.35;;;6.20;99.90;;;;;;5006984;28;20429;-70
2020/12/17 04:09:22;;;;;;;6.40;3.35;;;6.20;99.90;;;;;;5010830;28;20050;-67
2020/12/17 04:11:48;;;;;;;9.80;3.13;;;6.20;99.90;;;;;;5007111;28;20052;-67
2020/12/17 04:14:15;;;;;;;4.97;2.72;;;6.20;99.90;;;;;;5006800;28;20115;-67
2020/12/17 04:16:41;;;;;;;17.80;5.35;;;6.20;99.90;;;;;;5006019;28;20034;-66
2020/12/17 04:19:08;;;;;;;13.60;4.80;;;6.10;99.90;;;;;;5005808;28;20044;-67
2020/12/17 04:21:34;;;;;;;6.00;3.45;;;6.10;99.90;;;;;;5003370;28;20053;-70
2020/12/17 04:24:00;;;;;;;12.63;4.40;;;6.10;99.90;;;;;;5008372;28;20065;-68
2020/12/17 04:26:27;;;;;;;7.32;3.55;;;6.10;99.90;;;;;;5005820;28;20060;-68
2020/12/17 04:28:53;;;;;;;7.97;3.65;;;6.10;99.90;;;;;;5014944;28;20472;-66
2020/12/17 04:31:20;;;;;;;6.57;3.85;;;6.10;99.90;;;;;;5004119;28;20050;-68
2020/12/17 04:33:46;;;;;;;7.03;3.05;;;6.10;99.90;;;;;;5011478;28;20545;-66
2020/12/17 04:36:13;;;;;;;8.35;4.85;;;6.10;99.90;;;;;;5005749;28;20490;-67
2020/12/17 04:38:39;;;;;;;8.95;4.15;;;6.10;99.90;;;;;;5007480;28;20103;-66
2020/12/17 04:41:06;;;;;;;6.90;3.70;;;6.10;99.90;;;;;;5009189;28;20053;-67
2020/12/17 04:43:32;;;;;;;6.85;4.50;;;6.10;99.90;;;;;;5005254;28;20712;-67
2020/12/17 04:46:03;;;;;;;12.57;4.55;;;6.10;99.90;;;;;;5004543;28;20228;-67
2020/12/17 04:48:31;;;;;;;8.23;4.45;;;6.10;99.90;;;;;;5030361;28;20103;-68
2020/12/17 04:50:58;;;;;;;4.40;3.83;;;6.10;99.90;;;;;;5027983;28;20049;-67
2020/12/17 04:53:25;;;;;;;7.65;3.67;;;6.00;99.90;;;;;;5024575;28;20309;-68
2020/12/17 04:55:52;;;;;;;8.00;5.30;;;6.00;99.90;;;;;;5026577;28;20052;-67
2020/12/17 04:58:20;;;;;;;6.68;3.88;;;6.00;99.90;;;;;;5020810;28;20071;-67
2020/12/17 05:00:54;;;;;;;6.10;3.72;;;6.00;99.90;;;;;;5023390;28;20045;-68
2020/12/17 05:03:22;;;;;;;8.77;4.07;;;6.00;99.90;;;;;;5026105;28;20824;-68
2020/12/17 05:05:52;;;;;;;7.22;4.68;;;6.00;99.90;;;;;;5033258;28;20587;-67
2020/12/17 05:08:22;;;;;;;8.68;4.55;;;6.00;99.90;;;;;;5023785;28;20077;-68
2020/12/17 05:10:49;;;;;;;6.57;4.18;;;6.00;99.90;;;;;;5026654;28;20069;-69
2020/12/17 05:13:16;;;;;;;8.95;5.00;;;6.00;99.90;;;;;;5031513;28;20052;-66
2020/12/17 05:15:44;;;;;;;10.32;4.80;;;6.00;99.90;;;;;;5025476;28;20401;-67
2020/12/17 05:18:11;;;;;;;7.25;4.45;;;6.00;99.90;;;;;;5026433;28;20064;-68
2020/12/17 05:20:40;;;;;;;9.85;4.47;;;6.00;99.90;;;;;;5025362;28;20104;-67
2020/12/17 05:23:07;;;;;;;12.05;4.45;;;6.00;99.90;;;;;;5026252;28;20493;-67
2020/12/17 05:25:33;;;;;;;8.23;5.47;;;6.00;99.90;;;;;;5025245;28;20091;-68
2020/12/17 05:28:04;;;;;;;8.02;4.63;;;6.00;99.90;;;;;;5024993;28;20143;-68
2020/12/17 05:30:35;;;;;;;9.40;4.85;;;6.00;99.90;;;;;;5025515;28;20062;-66
2020/12/17 05:33:03;;;;;;;6.53;5.35;;;6.00;99.90;;;;;;5035845;28;20354;-68
2020/12/17 05:35:36;;;;;;;11.30;6.13;;;6.00;99.90;;;;;;5023179;28;20103;-67
2020/12/17 05:38:05;;;;;;;11.85;5.18;;;6.00;99.90;;;;;;5029139;28;20199;-66
2020/12/17 05:40:41;;;;;;;13.35;5.35;;;6.00;99.90;;;;;;5024438;28;20042;-67
2020/12/17 05:43:08;;;;;;;6.82;5.18;;;6.00;99.90;;;;;;5027602;28;20037;-70
2020/12/17 05:45:35;;;;;;;10.43;4.90;;;6.00;99.90;;;;;;5029717;28;20073;-67
2020/12/17 05:48:17;;;;;;;13.13;5.60;;;6.00;99.90;;;;;;5024981;28;20473;-66
2020/12/17 05:50:51;;;;;;;21.17;6.00;;;6.00;99.90;;;;;;5026222;28;20500;-67
2020/12/17 05:53:17;;;;;;;11.07;5.35;;;6.00;99.90;;;;;;5030373;28;20488;-67
2020/12/17 05:55:44;;;;;;;8.27;4.68;;;6.00;99.90;;;;;;5026023;28;20041;-67
2020/12/17 05:58:11;;;;;;;12.23;5.57;;;6.00;99.90;;;;;;5024528;28;20072;-71
2020/12/17 06:00:38;;;;;;;8.65;5.82;;;6.00;99.90;;;;;;5024421;28;20404;-66
2020/12/17 06:03:12;;;;;;;14.98;6.22;;;6.00;99.90;;;;;;5024576;28;20137;-69
2020/12/17 06:05:44;;;;;;;10.80;5.75;;;6.10;99.90;;;;;;5024512;28;20167;-66
2020/12/17 06:08:16;;;;;;;8.70;5.00;;;6.10;99.90;;;;;;5028242;28;20358;-68
2020/12/17 06:10:48;;;;;;;8.38;6.28;;;6.10;99.90;;;;;;5031830;28;20059;-68
2020/12/17 06:13:16;;;;;;;9.50;5.72;;;6.10;99.90;;;;;;5029372;28;20065;-71
2020/12/17 06:15:46;;;;;;;9.88;5.93;;;6.10;99.90;;;;;;5030734;28;20082;-67
2020/12/17 06:18:18;;;;;;;9.80;5.55;;;6.10;99.90;;;;;;5027802;28;20068;-67
2020/12/17 06:20:45;;;;;;;12.35;5.47;;;6.10;99.90;;;;;;5027327;28;20053;-66
2020/12/17 06:23:15;;;;;;;7.15;5.85;;;6.10;99.90;;;;;;5028077;28;20207;-68
2020/12/17 06:25:45;;;;;;;8.90;5.78;;;6.00;99.90;;;;;;5033247;28;20041;-67
2020/12/17 06:28:36;;;;;;;8.50;5.53;;;6.00;99.90;;;;;;5024563;28;20061;-67
2020/12/17 06:31:04;;;;;;;11.45;5.18;;;6.00;99.90;;;;;;5027979;28;20586;-67
2020/12/17 06:33:35;;;;;;;8.13;5.57;;;6.00;99.90;;;;;;5023358;28;20475;-68
2020/12/17 06:36:09;;;;;;;7.15;4.90;;;6.00;99.90;;;;;;5025452;28;20043;-67
2020/12/17 06:38:38;;;;;;;10.68;5.53;;;6.00;99.90;;;;;;5026665;28;20081;-68
2020/12/17 06:41:16;;;;;;;11.30;6.55;;;6.00;99.90;;;;;;5027358;28;20087;-67
2020/12/17 06:43:42;;;;;;;9.77;6.15;;;6.00;99.90;;;;;;5028236;28;20051;-67
2020/12/17 06:46:36;;;;;;;13.50;5.80;;;6.10;99.90;;;;;;5034082;28;20080;-71
2020/12/17 06:49:07;;;;;;;6.95;4.22;;;6.00;99.90;;;;;;5034637;28;20585;-68
2020/12/17 06:51:41;;;;;;;5.47;4.47;;;6.00;99.90;;;;;;5028976;28;20049;-67
2020/12/17 06:54:16;;;;;;;5.15;3.65;;;6.10;99.90;;;;;;5029879;28;20068;-69
2020/12/17 06:57:10;;;;;;;8.98;4.88;;;6.10;99.90;;;;;;5029037;28;20249;-69
2020/12/17 06:59:38;;;;;;;7.15;3.50;;;6.10;99.90;;;;;;5028147;28;20049;-66
2020/12/17 07:02:05;;;;;;;10.25;4.05;;;6.10;99.90;;;;;;5029644;28;20065;-67
2020/12/17 07:04:34;;;;;;;6.65;4.10;;;6.20;99.90;;;;;;5006088;28;20054;-66
2020/12/17 07:07:11;;;;;;;8.80;5.10;;;6.20;99.90;;;;;;5009798;28;20080;-68
2020/12/17 07:09:37;;;;;;;6.47;4.10;;;6.20;99.90;;;;;;5006858;28;20058;-68
2020/12/17 07:12:04;;;;;;;6.05;5.45;;;6.20;99.90;;;;;;5011920;28;20045;-66
2020/12/17 07:14:30;;;;;;;6.03;4.70;;;6.10;99.90;;;;;;5005973;28;20521;-66
2020/12/17 07:17:02;;;;;;;8.18;4.20;;;6.10;99.90;;;;;;5008157;28;20042;-67
2020/12/17 07:19:30;;;;;;;12.13;5.32;;;6.10;99.90;;;;;;5007680;28;20050;-68
2020/12/17 07:22:10;;;;;;;8.05;6.13;;;6.10;99.90;;;;;;5007224;28;20046;-67
2020/12/17 07:24:38;;;;;;;10.20;6.10;;;6.10;99.90;;;;;;5007849;28;20406;-68
2020/12/17 07:27:10;;;;;;;6.60;4.35;;;6.10;99.90;;;;;;5006574;28;20097;-66
2020/12/17 07:29:50;;;;;;;7.28;5.20;;;6.10;99.90;;;;;;5009055;28;20053;-70
2020/12/17 07:32:45;;;;;;;10.88;4.25;;;6.10;99.90;;;;;;5011472;28;20065;-67
2020/12/17 07:35:13;;;;;;;9.65;5.25;;;6.10;99.90;;;;;;5005166;28;20056;-68
2020/12/17 07:37:57;;;;;;;7.45;4.72;;;6.10;99.90;;;;;;5007139;28;20503;-68
2020/12/17 07:40:27;;;;;;;9.63;4.85;;;6.10;99.90;;;;;;5013904;28;20216;-67
2020/12/17 07:42:57;;;;;;;8.20;5.43;;;6.00;99.90;;;;;;5006871;28;20743;-67
2020/12/17 07:45:45;;;;;;;11.63;5.97;;;6.10;99.90;;;;;;5011500;28;20046;-67
2020/12/17 07:48:31;;;;;;;7.60;5.28;;;6.10;99.90;;;;;;5007783;28;20375;-68
2020/12/17 07:50:58;;;;;;;7.55;5.85;;;6.00;99.90;;;;;;5007117;28;20069;-67
2020/12/17 07:53:26;;;;;;;9.77;6.22;;;6.00;99.90;;;;;;5008682;28;20401;-67
2020/12/17 07:55:53;;;;;;;6.57;5.38;;;6.00;99.90;;;;;;5013888;28;20045;-71
2020/12/17 07:58:20;;;;;;;6.72;5.03;;;6.00;99.90;;;;;;5003752;28;20077;-66
2020/12/17 08:00:46;;;;;;;6.95;4.38;;;6.00;99.90;;;;;;5008276;28;20183;-67
2020/12/17 08:03:14;;;;;;;9.30;4.57;;;6.00;99.90;;;;;;5010507;28;20466;-67
2020/12/17 08:05:40;;;;;;;13.07;5.82;;;6.00;99.90;;;;;;5005132;28;20049;-67
2020/12/17 08:08:07;;;;;;;10.23;5.70;;;6.10;99.90;;;;;;5009637;28;20112;-67
2020/12/17 08:10:38;;;;;;;10.02;4.47;;;6.00;99.90;;;;;;5006397;28;20056;-69
2020/12/17 08:13:05;;;;;;;;;;;6.10;99.90;;;;;;5016823;28;20446;-67
2020/12/17 08:15:31;;;;;;;9.98;5.68;;;6.00;99.90;;;;;;5014604;28;20007;-68
2020/12/17 08:17:59;;;;;;;6.22;5.13;;;6.10;99.90;;;;;;5006545;28;20068;-68
2020/12/17 08:20:25;;;;;;;9.38;5.53;;;6.00;99.90;;;;;;5011490;28;20352;-67
2020/12/17 08:22:55;;;;;;;8.10;5.15;;;6.00;99.90;;;;;;5007852;28;20046;-67
2020/12/17 08:25:26;;;;;;;8.38;4.95;;;6.10;99.90;;;;;;5008135;28;20454;-66
2020/12/17 08:27:53;;;;;;;9.07;4.47;;;6.00;99.90;;;;;;5006327;28;20121;-66
2020/12/17 08:30:21;;;;;;;6.32;5.35;;;6.00;99.90;;;;;;5004019;28;20391;-68
2020/12/17 08:32:53;;;;;;;17.05;7.15;;;6.00;99.90;;;;;;5003741;28;20042;-70
2020/12/17 08:35:25;;;;;;;8.63;4.15;;;6.00;99.90;;;;;;5010807;28;20385;-67
2020/12/17 08:37:54;;;;;;;6.57;4.25;;;6.10;99.90;;;;;;5006241;28;20065;-66
2020/12/17 08:40:25;;;;;;;5.50;3.63;;;6.10;99.90;;;;;;5007253;28;20054;-69
2020/12/17 08:42:56;;;;;;;8.25;4.07;;;6.10;99.90;;;;;;5011851;28;20315;-67
2020/12/17 08:45:25;;;;;;;8.70;3.97;;;6.10;99.90;;;;;;5005612;28;20352;-66
2020/12/17 08:47:59;;;;;;;7.63;3.13;;;6.10;99.90;;;;;;5007541;28;20511;-66
2020/12/17 08:50:26;;;;;;;5.95;3.70;;;6.10;99.90;;;;;;5002576;28;20292;-67
2020/12/17 08:52:53;;;;;;;6.40;4.20;;;6.10;99.90;;;;;;5006553;28;20115;-69
2020/12/17 08:55:23;;;;;;;6.32;3.50;;;6.10;99.90;;;;;;5014424;28;20049;-66
2020/12/17 08:57:50;;;;;;;3.85;3.55;;;6.10;99.90;;;;;;5007292;28;20045;-66
2020/12/17 09:00:21;;;;;;;7.25;2.85;;;6.10;99.90;;;;;;5008372;28;20054;-66
2020/12/17 09:02:47;;;;;;;3.72;2.33;;;6.20;99.90;;;;;;5014338;28;20423;-66
2020/12/17 09:05:16;;;;;;;3.20;2.90;;;6.20;99.90;;;;;;5006349;28;20041;-67
2020/12/17 09:07:46;;;;;;;5.68;2.25;;;6.20;99.90;;;;;;5013212;28;20047;-66
2020/12/17 09:10:16;;;;;;;3.88;2.60;;;6.20;99.90;;;;;;5003514;28;20129;-66
2020/12/17 09:12:54;;;;;;;6.28;2.83;;;6.20;99.90;;;;;;5011218;28;20224;-67
2020/12/17 09:15:20;;;;;;;6.68;3.85;;;6.20;99.90;;;;;;5004396;28;20099;-67
2020/12/17 09:17:47;;;;;;;4.78;3.50;;;6.20;99.90;;;;;;5006192;28;20049;-66
2020/12/17 09:20:21;;;;;;;5.45;3.65;;;6.30;99.90;;;;;;5005330;28;20140;-68
2020/12/17 09:22:48;;;;;;;7.32;4.03;;;6.30;99.90;;;;;;5009428;28;20065;-70
2020/12/17 09:25:26;;;;;;;5.95;4.40;;;6.30;99.90;;;;;;5003557;28;20063;-69
2020/12/17 09:27:52;;;;;;;5.63;4.60;;;6.30;99.90;;;;;;5006829;28;20251;-66
2020/12/17 09:30:20;;;;;;;6.03;4.78;;;6.40;99.90;;;;;;5004257;28;20568;-68
2020/12/17 09:32:56;;;;;;;4.68;4.07;;;6.40;99.90;;;;;;5003461;28;20057;-68
2020/12/17 09:35:37;;;;;;;7.97;4.15;;;6.30;99.90;;;;;;5007134;28;20360;-67
2020/12/17 09:38:16;;;;;;;6.65;4.25;;;6.40;99.90;;;;;;5007160;28;20149;-68
2020/12/17 09:40:44;;;;;;;5.78;3.05;;;6.30;99.90;;;;;;5028505;28;20040;-67
2020/12/17 09:43:16;;;;;;;8.25;3.70;;;6.30;99.90;;;;;;5033904;28;20041;-66
2020/12/17 09:45:53;;;;;;;6.50;3.70;;;6.30;99.90;;;;;;5030490;28;20047;-67
2020/12/17 09:48:23;;;;;;;6.15;3.53;;;6.30;99.90;;;;;;5032549;28;20531;-68
2020/12/17 09:50:52;;;;;;;6.85;3.50;;;6.30;99.90;;;;;;5032767;28;20442;-66
2020/12/17 09:53:20;;;;;;;4.68;3.65;;;6.40;99.90;;;;;;5027196;28;20130;-68
2020/12/17 09:55:46;;;;;;;9.55;4.25;;;6.40;99.90;;;;;;5026495;28;20095;-67
2020/12/17 09:58:14;;;;;;;6.13;3.15;;;6.30;99.90;;;;;;5030532;28;20130;-69
2020/12/17 10:00:40;;;;;;;6.00;4.78;;;6.40;99.90;;;;;;5027422;28;20116;-66
2020/12/17 10:03:06;;;;;;;4.80;3.55;;;6.40;99.90;;;;;;5029500;28;20084;-67
2020/12/17 10:05:33;;;;;;;6.30;5.00;;;6.30;99.90;;;;;;5028044;28;20065;-66
2020/12/17 10:07:59;;;;;;;8.30;3.10;;;6.30;99.90;;;;;;5033371;28;20057;-67
2020/12/17 10:10:26;;;;;;;4.22;3.83;;;6.30;99.90;;;;;;5029084;28;20084;-68
2020/12/17 10:12:53;;;;;;;6.15;3.38;;;6.30;99.90;;;;;;5027512;28;20136;-67
2020/12/17 10:15:19;;;;;;;6.95;3.20;;;6.30;99.90;;;;;;5028307;28;20483;-66
2020/12/17 10:17:45;;;;;;;5.30;3.80;;;6.30;99.90;;;;;;5027361;28;20049;-67
2020/12/17 10:20:12;;;;;;;5.47;3.55;;;6.30;99.90;;;;;;5026345;28;20061;-66
2020/12/17 10:22:45;;;;;;;3.67;3.33;;;6.30;99.90;;;;;;5033399;28;20041;-70
2020/12/17 10:25:13;;;;;;;4.85;3.55;;;6.30;99.90;;;;;;5027169;28;20049;-67
2020/12/17 10:27:39;;;;;;;9.65;4.38;;;6.30;99.90;;;;;;5025463;28;20136;-68
2020/12/17 10:30:06;;;;;;;4.53;3.22;;;6.30;99.90;;;;;;5027092;28;20056;-67
2020/12/17 10:32:34;;;;;;;4.07;3.47;;;6.30;99.90;;;;;;5024920;28;20655;-67
2020/12/17 10:35:00;;;;;;;3.92;3.60;;;6.30;99.90;;;;;;5029513;28;20531;-68
2020/12/17 10:37:27;;;;;;;4.47;3.35;;;6.30;99.90;;;;;;5027081;28;20052;-66
2020/12/17 10:39:54;;;;;;;7.47;3.17;;;6.30;99.90;;;;;;5033713;28;20073;-70
2020/12/17 10:42:21;;;;;;;3.67;3.22;;;6.30;99.90;;;;;;5033576;28;20368;-66
2020/12/17 10:44:49;;;;;;;5.80;3.55;;;6.40;99.90;;;;;;5030287;28;20046;-66
2020/12/17 10:47:16;;;;;;;4.10;3.67;;;6.30;99.90;;;;;;5036534;28;20185;-67
2020/12/17 10:49:43;;;;;;;4.47;3.55;;;6.30;99.90;;;;;;5027161;28;20045;-67
2020/12/17 10:52:09;;;;;;;6.10;3.88;;;6.30;99.90;;;;;;5028456;28;21700;-70
2020/12/17 10:54:36;;;;;;;5.32;3.78;;;6.40;99.90;;;;;;5036940;28;20045;-67
2020/12/17 10:57:03;;;;;;;6.00;4.20;;;6.30;99.90;;;;;;5029206;28;20128;-66
2020/12/17 10:59:30;;;;;;;8.02;5.28;;;6.30;99.90;;;;;;5032332;28;20049;-66
2020/12/17 11:01:57;;;;;;;6.43;4.55;;;6.30;99.90;;;;;;5036405;28;20045;-66
2020/12/17 11:04:24;;;;;;;9.85;5.82;;;6.30;99.90;;;;;;5027555;28;20049;-67
2020/12/17 11:06:55;;;;;;;6.65;4.75;;;6.30;99.90;;;;;;5027286;28;20123;-67
2020/12/17 11:09:22;;;;;;;10.75;4.97;;;6.30;99.90;;;;;;5030021;28;20060;-67
2020/12/17 11:11:52;;;;;;;9.25;4.38;;;6.30;99.90;;;;;;5035945;28;20081;-69
2020/12/17 11:14:19;;;;;;;8.60;5.25;;;6.30;99.90;;;;;;5030740;28;20037;-67
2020/12/17 11:16:49;;;;;;;5.07;3.35;;;6.30;99.90;;;;;;5028967;28;20045;-67
2020/12/17 11:19:17;;;;;;;;;;;6.30;99.90;;;;;;5035760;28;20067;-68
2020/12/17 11:21:43;;;;;;;9.02;3.58;;;6.30;99.90;;;;;;5026302;28;20129;-67
2020/12/17 11:24:11;;;;;;;6.03;3.63;;;6.40;99.90;;;;;;5025250;28;20073;-68
2020/12/17 11:26:41;;;;;;;6.20;3.30;;;6.30;99.90;;;;;;5027156;28;20069;-67
2020/12/17 11:29:08;;;;;;;5.95;4.60;;;6.30;99.90;;;;;;5027711;28;20071;-67
2020/12/17 11:31:35;;;;;;;6.03;4.65;;;6.30;99.90;;;;;;5024971;28;20141;-67
2020/12/17 11:34:01;;;;;;;7.82;4.70;;;6.30;99.90;;;;;;5029826;28;20405;-67
2020/12/17 11:36:28;;;;;;;8.95;4.40;;;6.30;99.90;;;;;;5025782;28;20060;-67
2020/12/17 11:38:54;;;;;;;5.20;3.97;;;6.30;99.90;;;;;;5025828;28;20049;-70
2020/12/17 11:41:20;;;;;;;6.18;4.70;;;6.30;99.90;;;;;;5027652;28;20389;-66
2020/12/17 11:43:47;;;;;;;7.60;3.80;;;6.30;99.90;;;;;;5032069;28;20056;-66
2020/12/17 11:46:17;;;;;;;19.60;4.97;;;6.30;99.90;;;;;;5029138;28;20077;-67
2020/12/17 11:48:44;;;;;;;5.30;3.72;;;6.30;99.90;;;;;;5026990;28;20052;-67
2020/12/17 11:51:15;;;;;;;10.02;4.65;;;6.30;99.90;;;;;;5026741;28;20057;-70
2020/12/17 11:53:44;;;;;;;8.38;4.55;;;6.30;99.90;;;;;;5025968;28;20037;-67
2020/12/17 11:56:15;;;;;;;6.05;3.85;;;6.40;99.90;;;;;;5027736;28;20044;-68
2020/12/17 11:58:43;;;;;;;7.60;4.07;;;6.40;99.90;;;;;;5028972;28;20048;-71
2020/12/17 12:01:10;;;;;;;7.25;4.55;;;6.30;99.90;;;;;;5028486;28;20045;-67
2020/12/17 12:03:37;;;;;;;7.45;4.97;;;6.40;99.90;;;;;;5024699;28;20134;-67
2020/12/17 12:06:04;;;;;;;5.00;4.53;;;6.40;99.90;;;;;;5025400;28;20103;-66
2020/12/17 12:08:30;;;;;;;6.25;4.70;;;6.40;99.90;;;;;;5025281;28;20056;-66
2020/12/17 12:10:58;;;;;;;7.43;4.28;;;6.40;99.90;;;;;;5027212;28;20110;-67
2020/12/17 12:13:24;;;;;;;7.15;4.55;;;6.40;99.90;;;;;;5024857;28;20049;-68
2020/12/17 12:15:51;;;;;;;5.38;4.22;;;6.40;99.90;;;;;;5025773;28;20080;-67
2020/12/17 12:18:17;;;;;;;7.07;3.95;;;6.40;99.90;;;;;;5031454;28;20103;-66
2020/12/17 12:20:45;;;;;;;4.95;4.32;;;6.40;99.90;;;;;;5026721;28;20047;-66
2020/12/17 12:23:16;;;;;;;5.82;4.38;;;6.40;99.90;;;;;;5025052;28;20041;-67
2020/12/17 12:25:44;;;;;;;6.20;5.15;;;6.40;99.90;;;;;;5027580;28;20060;-66
2020/12/17 12:28:11;;;;;;;7.75;4.88;;;6.40;99.90;;;;;;5022736;28;20462;-68
2020/12/17 12:30:38;;;;;;;4.82;4.32;;;6.40;99.90;;;;;;5029735;28;20045;-68
2020/12/17 12:33:05;;;;;;;5.40;4.78;;;6.40;99.90;;;;;;5028575;28;20469;-70
2020/12/17 12:35:31;;;;;;;7.47;4.55;;;6.40;99.90;;;;;;5024161;28;20864;-67
2020/12/17 12:37:57;;;;;;;5.68;3.67;;;6.40;99.90;;;;;;5028283;28;20049;-67
2020/12/17 12:40:24;;;;;;;8.32;4.25;;;6.40;99.90;;;;;;5026427;28;20067;-68
2020/12/17 12:42:50;;;;;;;5.07;4.57;;;6.40;99.90;;;;;;5025656;28;20049;-66
2020/12/17 12:45:17;;;;;;;6.57;4.68;;;6.40;99.90;;;;;;5030495;28;20067;-67
2020/12/17 12:47:43;;;;;;;6.13;3.92;;;6.40;99.90;;;;;;5020689;28;20054;-67
2020/12/17 12:50:09;;;;;;;10.77;5.32;;;6.40;99.90;;;;;;5031855;28;20044;-67
2020/12/17 12:52:36;;;;;;;5.97;4.78;;;6.40;99.90;;;;;;5024884;28;20501;-67
2020/12/17 12:55:03;;;;;;;7.40;4.95;;;6.40;99.90;;;;;;5026199;28;20046;-67
2020/12/17 12:57:29;;;;;;;4.75;4.25;;;6.40;99.90;;;;;;5024010;28;20064;-68
2020/12/17 12:59:55;;;;;;;5.60;3.78;;;6.40;99.90;;;;;;5024731;28;20064;-68
2020/12/17 13:02:22;;;;;;;6.28;4.88;;;6.40;99.90;;;;;;5021221;28;20106;-67